Time;durP1;ratioP1;P1;durP2;ratioP2;P2;SDS_P1;SDS_P2;PMS_P1;PMS_P2;Temp;Humidity;BMP_temperature;BMP_pressure;BME280_temperature;BME280_humidity;BME280_pressure;Samples;Min_cycle;Max_cycle;Signal;HPM_P1;HPM_P2
2021/09/24 00:00:20;;;;;;;;;;;;;;;14.08;67.28;97197.50;30001;982;1880;-65
2021/09/24 00:00:52;;;;;;;;;;;;;;;14.12;67.36;97188.69;30001;982;1885;-66
2021/09/24 00:01:24;;;;;;;;;;;;;;;14.13;67.09;97201.22;30001;982;1880;-67
2021/09/24 00:01:55;;;;;;;;;;;;;;;14.12;67.26;97194.16;30001;983;1884;-66
2021/09/24 00:02:26;;;;;;;;;;;;;;;14.09;67.45;97201.84;30001;983;1879;-66
2021/09/24 00:02:57;;;;;;;;;;;;;;;14.08;67.39;97197.50;30001;983;1884;-65
2021/09/24 00:03:28;;;;;;;;;;;;;;;14.13;67.22;97201.22;30001;983;1879;-67
2021/09/24 00:03:58;;;;;;;;;;;;;;;14.13;67.16;97201.22;30001;983;1862;-67
2021/09/24 00:04:31;;;;;;;;;;;;;;;14.13;67.22;97198.50;30001;983;1875;-65
2021/09/24 00:05:02;;;;;;;;;;;;;;;14.10;67.45;97197.19;30001;983;1884;-66
2021/09/24 00:05:33;;;;;;;;;;;;;;;14.09;67.42;97190.94;30001;983;1880;-65
2021/09/24 00:06:06;;;;;;;;;;;;;;;14.08;67.15;97200.22;30001;983;1884;-65
2021/09/24 00:06:36;;;;;;;;;;;;;;;14.07;67.40;97193.16;30001;983;1880;-65
2021/09/24 00:07:08;;;;;;;;;;;;;;;14.07;67.39;97193.16;30001;982;1884;-71
2021/09/24 00:07:39;;;;;;;;;;;;;;;14.09;67.36;97196.37;30001;982;1880;-65
2021/09/24 00:08:09;;;;;;;;;;;;;;;14.09;67.07;97190.94;30001;982;1884;-66
2021/09/24 00:08:40;;;;;;;;;;;;;;;14.09;67.27;97193.66;30001;984;1880;-67
2021/09/24 00:09:12;;;;;;;;;;;;;;;14.09;67.05;97196.37;30001;982;1863;-67
2021/09/24 00:09:42;;;;;;;;;;;;;;;14.07;67.01;97182.25;30001;983;1875;-66
2021/09/24 00:10:14;;;;;;;;;;;;;;;14.06;67.25;97194.28;30001;983;1884;-65
2021/09/24 00:10:45;;;;;;;;;;;;;;;14.07;67.44;97193.16;30001;983;1858;-65
2021/09/24 00:11:16;;;;;;;;;;;;;;;14.05;67.31;97187.19;30001;983;1880;-67
2021/09/24 00:11:47;;;;;;;;;;;;;;;14.06;67.34;97186.09;30001;983;1880;-66
2021/09/24 00:12:17;;;;;;;;;;;;;;;14.05;67.25;97189.13;30001;983;1884;-66
2021/09/24 00:12:48;;;;;;;;;;;;;;;14.04;67.26;97188.31;30001;983;1880;-66
2021/09/24 00:13:20;;;;;;;;;;;;;;;14.03;67.31;97180.44;30001;983;1884;-65
2021/09/24 00:13:50;;;;;;;;;;;;;;;14.04;67.62;97192.97;30001;986;1872;-69
2021/09/24 00:14:21;;;;;;;;;;;;;;;14.08;67.22;97189.31;30001;968;1910;-65
2021/09/24 00:14:52;;;;;;;;;;;;;;;14.08;67.25;97193.97;30001;982;1880;-67
2021/09/24 00:15:23;;;;;;;;;;;;;;;14.06;67.25;97193.47;30001;982;1885;-66
2021/09/24 00:15:54;;;;;;;;;;;;;;;14.05;67.14;97189.91;30001;982;1858;-67
2021/09/24 00:16:25;;;;;;;;;;;;;;;14.06;67.41;97190.72;30001;982;1858;-67
2021/09/24 00:16:55;;;;;;;;;;;;;;;14.04;67.37;97190.22;30001;982;1880;-66
2021/09/24 00:17:26;;;;;;;;;;;;;;;14.03;67.52;97191.34;30001;983;1884;-66
2021/09/24 00:17:57;;;;;;;;;;;;;;;14.02;67.23;97189.72;30001;983;1880;-67
2021/09/24 00:18:28;;;;;;;;;;;;;;;14.01;67.39;97183.47;30001;983;1862;-65
2021/09/24 00:18:59;;;;;;;;;;;;;;;14.03;67.50;97185.88;30001;983;1875;-65
2021/09/24 00:19:30;;;;;;;;;;;;;;;14.02;67.51;97190.53;30001;983;1862;-65
2021/09/24 00:20:02;;;;;;;;;;;;;;;14.05;67.34;97187.19;30001;983;1875;-66
2021/09/24 00:20:34;;;;;;;;;;;;;;;14.04;67.65;97192.97;30001;983;1884;-59
2021/09/24 00:21:05;;;;;;;;;;;;;;;14.05;67.21;97180.94;30001;983;1858;-66
2021/09/24 00:21:35;;;;;;;;;;;;;;;14.04;67.45;97182.84;30001;982;1880;-67
2021/09/24 00:22:06;;;;;;;;;;;;;;;14.04;67.34;97176.59;30001;982;1880;-66
2021/09/24 00:22:37;;;;;;;;;;;;;;;14.03;67.43;97185.88;30001;982;1885;-67
2021/09/24 00:23:08;;;;;;;;;;;;;;;14.01;67.55;97188.91;30001;982;1880;-67
2021/09/24 00:23:38;;;;;;;;;;;;;;;14.01;67.53;97178.00;30001;982;1884;-67
2021/09/24 00:24:09;;;;;;;;;;;;;;;14.00;67.29;97176.41;30001;982;1859;-67
2021/09/24 00:24:40;;;;;;;;;;;;;;;14.00;67.31;97176.41;30001;983;1879;-65
2021/09/24 00:25:11;;;;;;;;;;;;;;;14.01;67.64;97171.75;30001;983;1879;-57
2021/09/24 00:25:42;;;;;;;;;;;;;;;13.98;67.32;97181.34;30001;983;1884;-60
2021/09/24 00:26:12;;;;;;;;;;;;;;;14.01;67.74;97172.56;30001;983;1880;-66
2021/09/24 00:26:43;;;;;;;;;;;;;;;14.00;67.61;97168.22;30001;983;1884;-68
2021/09/24 00:27:17;;;;;;;;;;;;;;;14.00;67.69;97172.84;30001;983;1880;-68
2021/09/24 00:27:48;;;;;;;;;;;;;;;13.98;67.74;97175.91;30001;983;1862;-67
2021/09/24 00:28:19;;;;;;;;;;;;;;;14.00;67.88;97178.31;30001;983;1875;-56
2021/09/24 00:28:50;;;;;;;;;;;;;;;14.02;67.66;97171.44;30001;982;1884;-68
2021/09/24 00:29:20;;;;;;;;;;;;;;;14.06;67.39;97177.91;30001;982;1880;-66
2021/09/24 00:29:51;;;;;;;;;;;;;;;14.06;67.47;97169.72;30001;982;1863;-67
2021/09/24 00:30:22;;;;;;;;;;;;;;;14.04;67.54;97177.41;30001;982;1876;-67
2021/09/24 00:30:53;;;;;;;;;;;;;;;14.03;67.27;97173.06;30001;982;1884;-65
2021/09/24 00:31:24;;;;;;;;;;;;;;;14.03;67.39;97174.97;30001;982;1881;-67
2021/09/24 00:31:59;;;;;;;;;;;;;;;14.01;67.29;97172.56;30001;963;1882;-66
2021/09/24 00:32:30;;;;;;;;;;;;;;;14.02;67.43;97178.81;30001;983;1875;-65
2021/09/24 00:33:01;;;;;;;;;;;;;;;14.05;67.45;97167.28;30001;983;1884;-65
2021/09/24 00:33:31;;;;;;;;;;;;;;;14.06;67.41;97174.34;30001;983;1880;-67
2021/09/24 00:34:02;;;;;;;;;;;;;;;14.03;67.01;97174.97;30001;982;1884;-66
2021/09/24 00:34:33;;;;;;;;;;;;;;;14.00;67.25;97176.41;30001;983;1880;-66
2021/09/24 00:35:04;;;;;;;;;;;;;;;13.98;67.60;97177.81;30002;797;1014;-66
2021/09/24 00:35:39;;;;;;;;;;;;;;;13.95;67.79;97168.31;30001;983;1880;-67
2021/09/24 00:36:09;;;;;;;;;;;;;;;13.92;68.19;97174.38;30001;983;1884;-67
2021/09/24 00:36:40;;;;;;;;;;;;;;;13.91;67.88;97177.44;30001;982;1858;-65
2021/09/24 00:37:11;;;;;;;;;;;;;;;13.88;67.75;97173.37;30001;982;1880;-61
2021/09/24 00:37:42;;;;;;;;;;;;;;;13.87;68.61;97173.69;30001;982;1880;-66
2021/09/24 00:38:13;;;;;;;;;;;;;;;13.85;68.32;97182.22;30001;982;1884;-59
2021/09/24 00:38:44;;;;;;;;;;;;;;;13.85;68.37;97174.03;30001;982;1880;-66
2021/09/24 00:39:15;;;;;;;;;;;;;;;13.86;68.17;97170.16;30001;983;1884;-65
2021/09/24 00:39:49;;;;;;;;;;;;;;;13.90;68.27;97178.53;30001;983;1796;-66
2021/09/24 00:40:20;;;;;;;;;;;;;;;13.87;68.02;97177.22;30001;983;1884;-60
2021/09/24 00:40:52;;;;;;;;;;;;;;;13.86;68.27;97172.09;30001;983;1880;-64
2021/09/24 00:41:23;;;;;;;;;;;;;;;13.82;67.99;97169.19;30001;983;1884;-67
2021/09/24 00:41:54;;;;;;;;;;;;;;;13.81;68.45;97173.03;30001;983;1858;-65
2021/09/24 00:42:25;;;;;;;;;;;;;;;13.86;68.28;97174.84;30001;983;1880;-65
2021/09/24 00:42:56;;;;;;;;;;;;;;;13.86;68.03;97170.16;30001;983;1880;-68
2021/09/24 00:43:27;;;;;;;;;;;;;;;13.84;68.12;97171.59;30001;983;1884;-66
2021/09/24 00:43:57;;;;;;;;;;;;;;;13.82;68.30;97171.91;30001;982;1880;-66
2021/09/24 00:44:39;;;;;;;;;;;;;;;13.82;68.48;97171.09;30001;982;1885;-66
2021/09/24 00:45:10;;;;;;;;;;;;;;;13.84;68.35;97177.88;30001;982;1858;-65
2021/09/24 00:45:41;;;;;;;;;;;;;;;13.83;67.93;97173.53;30001;982;1880;-67
2021/09/24 00:46:12;;;;;;;;;;;;;;;13.84;68.43;97177.88;30001;982;1880;-65
2021/09/24 00:46:43;;;;;;;;;;;;;;;13.81;68.28;97167.56;30001;983;1884;-66
2021/09/24 00:47:14;;;;;;;;;;;;;;;13.81;68.72;97175.75;30001;983;1880;-65
2021/09/24 00:47:45;;;;;;;;;;;;;;;13.79;68.17;97175.25;30001;983;1884;-67
2021/09/24 00:48:16;;;;;;;;;;;;;;;13.76;68.59;97173.13;30001;983;1880;-67
2021/09/24 00:48:47;;;;;;;;;;;;;;;13.74;68.77;97172.63;30001;983;1884;-65
2021/09/24 00:49:18;;;;;;;;;;;;;;;13.73;68.87;97179.19;30001;983;1880;-66
2021/09/24 00:49:49;;;;;;;;;;;;;;;13.70;68.59;97174.34;30001;983;1884;-67
2021/09/24 00:50:20;;;;;;;;;;;;;;;13.70;68.79;97177.06;30001;983;1858;-67
2021/09/24 00:50:51;;;;;;;;;;;;;;;13.68;68.75;97185.56;30001;983;1880;-66
2021/09/24 00:51:22;;;;;;;;;;;;;;;13.68;69.22;97179.31;30001;982;1880;-66
2021/09/24 00:51:53;;;;;;;;;;;;;;;13.66;68.78;97176.06;30001;982;1885;-66
2021/09/24 00:52:25;;;;;;;;;;;;;;;13.65;69.02;97185.38;30001;982;1880;-66
2021/09/24 00:52:56;;;;;;;;;;;;;;;13.64;69.05;97189.19;30001;982;1885;-66
2021/09/24 00:53:29;;;;;;;;;;;;;;;13.65;69.23;97177.19;30001;982;1881;-60
2021/09/24 00:54:00;;;;;;;;;;;;;;;13.66;69.31;97186.97;30001;983;1884;-66
2021/09/24 00:54:31;;;;;;;;;;;;;;;13.65;69.22;97179.91;30001;983;1880;-61
2021/09/24 00:55:03;;;;;;;;;;;;;;;13.64;69.17;97179.09;30001;983;1884;-68
2021/09/24 00:55:34;;;;;;;;;;;;;;;13.71;68.78;97175.97;30001;983;1858;-67
2021/09/24 00:56:07;;;;;;;;;;;;;;;13.71;68.61;97181.41;30001;983;1880;-58
2021/09/24 00:56:38;;;;;;;;;;;;;;;13.70;68.93;97174.34;30001;983;1880;-67
2021/09/24 00:57:09;;;;;;;;;;;;;;;13.69;68.65;97187.19;30001;983;1884;-66
2021/09/24 00:57:41;;;;;;;;;;;;;;;13.67;68.90;97183.94;30001;965;1898;-66
2021/09/24 00:58:12;;;;;;;;;;;;;;;13.68;69.21;97184.75;30001;983;1884;-66
2021/09/24 00:58:43;;;;;;;;;;;;;;;13.68;69.46;97184.75;30001;983;1880;-67
2021/09/24 00:59:14;;;;;;;;;;;;;;;13.66;68.84;97178.78;30001;982;1885;-66
2021/09/24 00:59:49;;;;;;;;;;;;;;;13.64;68.92;97179.09;30001;982;1880;-65
2021/09/24 01:00:20;;;;;;;;;;;;;;;13.64;69.29;97181.03;30001;982;1885;-66
2021/09/24 01:00:50;;;;;;;;;;;;;;;13.64;69.33;97186.47;30001;982;1859;-67
2021/09/24 01:01:21;;;;;;;;;;;;;;;13.62;69.53;97183.25;30001;982;1880;-68
2021/09/24 01:01:52;;;;;;;;;;;;;;;13.61;69.44;97179.72;30001;983;1880;-66
2021/09/24 01:02:23;;;;;;;;;;;;;;;13.59;69.59;97187.38;30001;983;1884;-67
2021/09/24 01:02:54;;;;;;;;;;;;;;;13.57;69.21;97183.34;30001;983;1880;-66
2021/09/24 01:03:25;;;;;;;;;;;;;;;13.56;69.36;97176.28;30001;983;1862;-61
2021/09/24 01:03:56;;;;;;;;;;;;;;;13.56;69.43;97195.38;30001;983;1875;-67
2021/09/24 01:04:27;;;;;;;;;;;;;;;13.53;69.75;97190.50;30001;983;1884;-67
2021/09/24 01:04:58;;;;;;;;;;;;;;;13.52;70.17;97186.19;30001;983;1880;-67
2021/09/24 01:05:29;;;;;;;;;;;;;;;13.50;69.92;97188.44;30001;983;1884;-65
2021/09/24 01:05:59;;;;;;;;;;;;;;;13.49;70.21;97186.81;30001;983;1880;-67
2021/09/24 01:06:30;;;;;;;;;;;;;;;13.49;69.85;97186.81;30001;982;1885;-66
2021/09/24 01:07:02;;;;;;;;;;;;;;;13.49;70.19;97186.81;30001;982;1880;-67
2021/09/24 01:07:34;;;;;;;;;;;;;;;13.47;69.76;97195.28;30001;982;1885;-65
2021/09/24 01:08:05;;;;;;;;;;;;;;;13.53;69.76;97187.78;30001;982;1858;-67
2021/09/24 01:08:36;;;;;;;;;;;;;;;13.55;69.53;97185.56;30001;982;1880;-67
2021/09/24 01:09:06;;;;;;;;;;;;;;;13.56;69.59;97189.91;30001;983;1879;-67
2021/09/24 01:09:38;;;;;;;;;;;;;;;13.54;69.45;97190.22;30001;983;1884;-67
2021/09/24 01:10:11;;;;;;;;;;;;;;;13.51;70.04;97192.78;30001;983;1880;-65
2021/09/24 01:10:42;;;;;;;;;;;;;;;13.48;70.34;97190.66;30001;983;1884;-66
2021/09/24 01:11:14;;;;;;;;;;;;;;;13.45;71.27;97185.81;30001;983;1880;-67
2021/09/24 01:11:44;;;;;;;;;;;;;;;13.38;71.22;97186.19;30001;983;1884;-66
2021/09/24 01:12:15;;;;;;;;;;;;;;;13.36;71.22;97189.22;30001;983;1858;-66
2021/09/24 01:12:46;;;;;;;;;;;;;;;13.33;71.30;97189.84;30001;983;1880;-68
2021/09/24 01:13:17;;;;;;;;;;;;;;;13.29;71.79;97188.81;30001;982;1880;-67
2021/09/24 01:13:48;;;;;;;;;;;;;;;13.27;71.39;97185.59;30001;982;1884;-68
2021/09/24 01:14:19;;;;;;;;;;;;;;;13.24;72.00;97190.84;30001;982;1880;-67
2021/09/24 01:14:57;;;;;;;;;;;;;;;13.21;72.22;97186.78;30001;982;1885;-66
2021/09/24 01:15:28;;;;;;;;;;;;;;;13.16;72.07;97189.66;30001;982;1880;-67
2021/09/24 01:15:59;;;;;;;;;;;;;;;13.14;72.15;97189.09;30001;982;1863;-67
2021/09/24 01:16:30;;;;;;;;;;;;;;;13.12;72.70;97190.50;30001;982;1876;-68
2021/09/24 01:17:00;;;;;;;;;;;;;;;13.09;72.25;97184.56;30001;983;1884;-66
2021/09/24 01:17:31;;;;;;;;;;;;;;;13.08;72.05;97182.13;30001;983;1880;-66
2021/09/24 01:18:03;;;;;;;;;;;;;;;13.06;71.88;97189.78;30001;983;1884;-66
2021/09/24 01:18:36;;;;;;;;;;;;;;;13.04;72.08;97190.09;30001;983;1880;-67
2021/09/24 01:19:07;;;;;;;;;;;;;;;13.03;72.36;97185.75;30001;983;1884;-67
2021/09/24 01:19:38;;;;;;;;;;;;;;;13.02;72.62;97196.94;30001;983;1858;-67
2021/09/24 01:20:10;;;;;;;;;;;;;;;12.97;73.21;97192.41;30001;983;1880;-68
2021/09/24 01:20:40;;;;;;;;;;;;;;;12.94;72.77;97187.56;30001;983;1880;-67
2021/09/24 01:21:11;;;;;;;;;;;;;;;12.94;72.68;97193.00;30001;982;1884;-68
2021/09/24 01:21:43;;;;;;;;;;;;;;;12.92;72.54;97189.78;30001;982;1880;-67
2021/09/24 01:22:13;;;;;;;;;;;;;;;12.92;72.54;97194.41;30001;982;1884;-67
2021/09/24 01:22:44;;;;;;;;;;;;;;;12.91;73.19;97193.59;30001;982;1880;-67
2021/09/24 01:23:15;;;;;;;;;;;;;;;12.90;73.40;97199.34;30001;982;1863;-67
2021/09/24 01:23:46;;;;;;;;;;;;;;;12.87;73.81;97191.78;30001;982;1854;-66
2021/09/24 01:24:17;;;;;;;;;;;;;;;12.83;73.39;97186.13;30001;983;1884;-68
2021/09/24 01:24:48;;;;;;;;;;;;;;;12.82;73.28;97184.50;30001;983;1880;-67
2021/09/24 01:25:21;;;;;;;;;;;;;;;12.82;73.14;97184.50;30001;983;1884;-68
2021/09/24 01:25:51;;;;;;;;;;;;;;;12.81;73.30;97187.56;30001;983;1880;-67
2021/09/24 01:26:22;;;;;;;;;;;;;;;12.80;73.50;97180.50;30001;983;1884;-67
2021/09/24 01:26:55;;;;;;;;;;;;;;;12.80;73.35;97185.94;30001;983;1880;-67
2021/09/24 01:27:26;;;;;;;;;;;;;;;12.78;73.36;97188.97;30001;983;1884;-67
2021/09/24 01:27:57;;;;;;;;;;;;;;;12.79;73.68;97184.31;30001;983;1880;-67
2021/09/24 01:28:28;;;;;;;;;;;;;;;12.78;73.43;97188.97;30001;982;1884;-68
2021/09/24 01:28:59;;;;;;;;;;;;;;;12.80;73.11;97188.66;30001;979;1858;-67
2021/09/24 01:29:33;;;;;;;;;;;;;;;12.79;73.29;97189.75;30001;982;1880;-61
2021/09/24 01:30:06;;;;;;;;;;;;;;;12.78;73.01;97186.22;30001;982;1869;-67
2021/09/24 01:30:36;;;;;;;;;;;;;;;12.78;72.93;97188.16;30001;982;1885;-67
2021/09/24 01:31:07;;;;;;;;;;;;;;;12.77;73.45;97179.16;30001;982;1880;-67
2021/09/24 01:31:39;;;;;;;;;;;;;;;12.78;73.57;97177.25;30001;983;1884;-66
2021/09/24 01:32:09;;;;;;;;;;;;;;;12.75;73.55;97179.47;30001;983;1880;-66
2021/09/24 01:32:40;;;;;;;;;;;;;;;12.75;73.42;97179.47;30001;983;1807;-66
2021/09/24 01:33:11;;;;;;;;;;;;;;;12.75;73.44;97187.63;30001;983;1880;-59
2021/09/24 01:33:43;;;;;;;;;;;;;;;12.75;73.17;97181.37;30001;983;1862;-67
2021/09/24 01:34:14;;;;;;;;;;;;;;;12.73;73.38;97176.22;30001;983;1876;-61
2021/09/24 01:34:45;;;;;;;;;;;;;;;12.73;73.57;97178.97;30001;983;1885;-67
2021/09/24 01:35:16;;;;;;;;;;;;;;;12.73;73.65;97176.22;30001;983;1880;-66
2021/09/24 01:35:47;;;;;;;;;;;;;;;12.73;73.64;97181.69;30001;983;1884;-60
2021/09/24 01:36:18;;;;;;;;;;;;;;;12.72;73.49;97174.63;30001;982;1880;-67
2021/09/24 01:36:49;;;;;;;;;;;;;;;12.72;73.61;97173.81;30001;982;1885;-67
2021/09/24 01:37:22;;;;;;;;;;;;;;;12.71;73.58;97178.44;30001;982;1880;-66
2021/09/24 01:37:53;;;;;;;;;;;;;;;12.71;73.13;97175.72;30001;982;1885;-68
2021/09/24 01:38:23;;;;;;;;;;;;;;;12.71;73.60;97178.44;30001;982;1858;-65
2021/09/24 01:38:54;;;;;;;;;;;;;;;12.71;73.34;97173.00;30001;982;1881;-63
2021/09/24 01:39:25;;;;;;;;;;;;;;;12.71;73.54;97178.44;30001;983;1858;-67
2021/09/24 01:39:56;;;;;;;;;;;;;;;12.72;73.60;97182.78;30001;983;1880;-66
2021/09/24 01:40:27;;;;;;;;;;;;;;;12.70;73.30;97174.09;30001;983;1880;-66
2021/09/24 01:40:58;;;;;;;;;;;;;;;12.70;73.77;97176.84;30001;983;1884;-66
2021/09/24 01:41:28;;;;;;;;;;;;;;;12.69;74.19;97180.66;30001;983;1880;-67
2021/09/24 01:42:01;;;;;;;;;;;;;;;12.68;73.55;97172.78;30001;983;1884;-66
2021/09/24 01:42:32;;;;;;;;;;;;;;;12.65;74.26;97176.91;30001;983;1858;-67
2021/09/24 01:43:02;;;;;;;;;;;;;;;12.65;73.65;97174.19;30001;983;1880;-60
2021/09/24 01:43:34;;;;;;;;;;;;;;;12.65;74.32;97171.47;30001;982;1880;-66
2021/09/24 01:44:05;;;;;;;;;;;;;;;12.63;74.07;97176.41;30001;982;1885;-66
2021/09/24 01:44:36;;;;;;;;;;;;;;;12.64;74.22;97180.75;30001;982;1880;-68
2021/09/24 01:45:08;;;;;;;;;;;;;;;12.64;73.66;97188.09;30001;982;1885;-67
2021/09/24 01:45:39;;;;;;;;;;;;;;;12.65;73.88;97174.19;30001;982;1880;-67
2021/09/24 01:46:10;;;;;;;;;;;;;;;12.65;73.98;97179.63;30001;983;1862;-66
2021/09/24 01:46:42;;;;;;;;;;;;;;;12.65;73.84;97174.19;30001;983;1875;-67
2021/09/24 01:47:13;;;;;;;;;;;;;;;12.65;73.73;97174.19;30001;983;1884;-66
2021/09/24 01:47:44;;;;;;;;;;;;;;;12.66;74.00;97175.00;30001;983;1880;-68
2021/09/24 01:48:15;;;;;;;;;;;;;;;12.66;73.72;97178.53;30001;983;1884;-66
2021/09/24 01:48:46;;;;;;;;;;;;;;;12.67;73.54;97174.69;30001;983;1880;-65
2021/09/24 01:49:17;;;;;;;;;;;;;;;12.67;73.79;97171.97;30001;983;1884;-67
2021/09/24 01:49:47;;;;;;;;;;;;;;;12.69;73.87;97180.66;30001;983;1880;-67
2021/09/24 01:50:19;;;;;;;;;;;;;;;12.67;74.08;97177.44;30001;983;1884;-67
2021/09/24 01:50:50;;;;;;;;;;;;;;;12.68;73.95;97178.22;30001;983;1858;-65
2021/09/24 01:51:21;;;;;;;;;;;;;;;12.69;73.79;97171.69;30001;982;1880;-66
2021/09/24 01:51:52;;;;;;;;;;;;;;;12.69;73.51;97175.22;30001;982;1858;-66
2021/09/24 01:52:23;;;;;;;;;;;;;;;12.69;73.90;97175.22;30001;982;1880;-66
2021/09/24 01:52:54;;;;;;;;;;;;;;;12.70;73.38;97176.03;30001;982;1880;-67
2021/09/24 01:53:25;;;;;;;;;;;;;;;12.69;73.53;97177.94;30001;983;1884;-59
2021/09/24 01:53:57;;;;;;;;;;;;;;;12.68;73.53;97179.03;30001;983;1880;-67
2021/09/24 01:54:27;;;;;;;;;;;;;;;12.68;73.54;97173.59;30001;983;1884;-67
2021/09/24 01:54:58;;;;;;;;;;;;;;;12.68;73.39;97172.78;30001;983;1880;-66
2021/09/24 01:55:29;;;;;;;;;;;;;;;12.67;73.87;97177.44;30001;983;1862;-67
2021/09/24 01:56:00;;;;;;;;;;;;;;;12.65;73.32;97174.19;30001;983;1875;-60
2021/09/24 01:56:32;;;;;;;;;;;;;;;12.63;73.55;97176.41;30001;983;1884;-61
2021/09/24 01:57:03;;;;;;;;;;;;;;;12.65;73.66;97179.63;30001;983;1880;-65
2021/09/24 01:57:34;;;;;;;;;;;;;;;12.63;73.69;97173.69;30001;983;1885;-61
2021/09/24 01:58:05;;;;;;;;;;;;;;;12.63;73.67;97175.59;30001;983;1880;-67
2021/09/24 01:58:36;;;;;;;;;;;;;;;12.62;73.31;97169.34;30001;982;1863;-66
2021/09/24 01:59:07;;;;;;;;;;;;;;;12.60;73.55;97176.19;30001;982;1876;-66
2021/09/24 01:59:38;;;;;;;;;;;;;;;12.59;73.25;97164.50;30001;982;1885;-61
2021/09/24 02:00:10;;;;;;;;;;;;;;;12.59;73.56;97174.56;30001;982;1880;-66
2021/09/24 02:00:43;;;;;;;;;;;;;;;12.59;74.01;97164.50;30001;982;1885;-66
2021/09/24 02:01:14;;;;;;;;;;;;;;;12.60;73.79;97171.56;30001;983;1880;-67
2021/09/24 02:01:45;;;;;;;;;;;;;;;12.57;73.85;97166.72;30001;983;1884;-67
2021/09/24 02:02:16;;;;;;;;;;;;;;;12.55;74.13;97171.63;30001;983;1880;-67
2021/09/24 02:02:47;;;;;;;;;;;;;;;12.52;74.28;97164.06;30001;983;1884;-67
2021/09/24 02:03:17;;;;;;;;;;;;;;;12.49;74.39;97161.94;30001;983;1880;-67
2021/09/24 02:03:48;;;;;;;;;;;;;;;12.49;74.10;97175.53;30001;983;1862;-66
2021/09/24 02:04:19;;;;;;;;;;;;;;;12.48;74.21;97165.75;30001;983;1796;-67
2021/09/24 02:04:50;;;;;;;;;;;;;;;12.49;74.48;97169.28;30001;983;1884;-62
2021/09/24 02:05:21;;;;;;;;;;;;;;;12.49;74.37;97175.53;30001;963;1900;-67
2021/09/24 02:05:51;;;;;;;;;;;;;;;12.49;74.19;97175.53;30001;983;1884;-67
2021/09/24 02:06:23;;;;;;;;;;;;;;;12.49;74.19;97170.09;30001;982;1880;-66
2021/09/24 02:06:54;;;;;;;;;;;;;;;12.49;74.08;97161.94;30001;982;1884;-68
2021/09/24 02:07:25;;;;;;;;;;;;;;;12.49;74.33;97174.75;30001;982;1880;-66
2021/09/24 02:07:56;;;;;;;;;;;;;;;12.48;73.96;97168.50;30001;982;1863;-66
2021/09/24 02:08:26;;;;;;;;;;;;;;;12.47;74.48;97166.91;30001;982;1876;-67
2021/09/24 02:08:57;;;;;;;;;;;;;;;12.46;74.25;97165.28;30001;983;1884;-66
2021/09/24 02:09:28;;;;;;;;;;;;;;;12.46;74.15;97167.19;30001;983;1880;-66
2021/09/24 02:10:00;;;;;;;;;;;;;;;12.45;74.46;97166.37;30001;983;1884;-68
2021/09/24 02:10:30;;;;;;;;;;;;;;;12.44;74.58;97159.34;30001;983;1880;-67
2021/09/24 02:11:01;;;;;;;;;;;;;;;12.44;74.24;97167.50;30001;983;1862;-66
2021/09/24 02:11:33;;;;;;;;;;;;;;;12.43;74.56;97165.87;30001;983;1875;-65
2021/09/24 02:12:06;;;;;;;;;;;;;;;12.42;74.41;97164.25;30001;983;1884;-66
2021/09/24 02:12:36;;;;;;;;;;;;;;;12.43;74.61;97165.06;30001;983;1880;-66
2021/09/24 02:13:08;;;;;;;;;;;;;;;12.43;74.52;97159.63;30001;983;1884;-65
2021/09/24 02:13:39;;;;;;;;;;;;;;;12.43;74.45;97165.87;30001;982;1880;-66
2021/09/24 02:14:10;;;;;;;;;;;;;;;12.43;74.38;97168.59;30001;982;1863;-66
2021/09/24 02:14:41;;;;;;;;;;;;;;;12.44;74.30;97162.06;30001;982;1876;-67
2021/09/24 02:15:12;;;;;;;;;;;;;;;12.43;74.81;97165.87;30001;982;1885;-67
2021/09/24 02:15:43;;;;;;;;;;;;;;;12.42;74.78;97161.53;30001;982;1859;-68
2021/09/24 02:16:14;;;;;;;;;;;;;;;12.41;74.65;97163.47;30001;983;1879;-66
2021/09/24 02:16:45;;;;;;;;;;;;;;;12.43;74.38;97157.72;30001;983;1879;-66
2021/09/24 02:17:15;;;;;;;;;;;;;;;12.43;74.48;97159.63;30001;983;1862;-66
2021/09/24 02:17:46;;;;;;;;;;;;;;;12.43;74.61;97165.87;30001;983;1875;-66
2021/09/24 02:18:17;;;;;;;;;;;;;;;12.43;74.53;97165.87;30001;983;1862;-66
2021/09/24 02:18:48;;;;;;;;;;;;;;;12.42;74.54;97161.53;30001;983;1875;-66
2021/09/24 02:19:20;;;;;;;;;;;;;;;12.41;74.81;97162.66;30001;983;1884;-66
2021/09/24 02:19:51;;;;;;;;;;;;;;;12.40;74.83;97167.28;30001;983;1880;-66
2021/09/24 02:20:21;;;;;;;;;;;;;;;12.40;74.81;97166.47;30001;982;1884;-66
2021/09/24 02:20:52;;;;;;;;;;;;;;;12.40;74.54;97163.75;30001;982;1880;-66
2021/09/24 02:21:23;;;;;;;;;;;;;;;12.40;74.95;97166.47;30001;982;1885;-67
2021/09/24 02:21:54;;;;;;;;;;;;;;;12.41;74.94;97162.66;30001;982;1858;-68
2021/09/24 02:22:25;;;;;;;;;;;;;;;12.39;75.30;97165.66;30001;984;1880;-66
2021/09/24 02:22:55;;;;;;;;;;;;;;;12.39;75.10;97162.12;30001;982;1880;-67
2021/09/24 02:23:27;;;;;;;;;;;;;;;12.38;75.02;97164.03;30001;982;1885;-66
2021/09/24 02:23:57;;;;;;;;;;;;;;;12.39;75.07;97162.12;30001;983;1880;-67
2021/09/24 02:24:28;;;;;;;;;;;;;;;12.38;75.02;97163.25;30001;983;1884;-66
2021/09/24 02:24:59;;;;;;;;;;;;;;;12.39;74.84;97152.06;30001;983;1880;-66
2021/09/24 02:25:30;;;;;;;;;;;;;;;12.40;75.01;97172.72;30001;983;1884;-66
2021/09/24 02:26:01;;;;;;;;;;;;;;;12.43;75.04;97171.31;30001;983;1858;-66
2021/09/24 02:26:32;;;;;;;;;;;;;;;12.43;75.22;97160.44;30001;983;1880;-67
2021/09/24 02:27:03;;;;;;;;;;;;;;;12.43;74.91;97163.16;30001;983;1880;-66
2021/09/24 02:27:34;;;;;;;;;;;;;;;12.44;74.91;97167.50;30001;983;1884;-67
2021/09/24 02:28:04;;;;;;;;;;;;;;;12.45;74.79;97163.66;30001;982;1880;-66
2021/09/24 02:28:36;;;;;;;;;;;;;;;12.46;74.78;97161.75;30001;982;1885;-66
2021/09/24 02:29:07;;;;;;;;;;;;;;;12.45;74.46;97158.22;30001;982;1880;-64
2021/09/24 02:29:37;;;;;;;;;;;;;;;12.46;74.90;97164.47;30001;982;1885;-66
2021/09/24 02:30:09;;;;;;;;;;;;;;;12.48;74.59;97162.25;30001;982;1880;-66
2021/09/24 02:30:39;;;;;;;;;;;;;;;12.47;74.72;97166.91;30001;982;1885;-66
2021/09/24 02:31:11;;;;;;;;;;;;;;;12.49;74.65;97164.66;30001;985;1858;-66
2021/09/24 02:31:42;;;;;;;;;;;;;;;12.49;74.62;97159.22;30001;983;1880;-66
2021/09/24 02:32:13;;;;;;;;;;;;;;;12.49;74.49;97156.50;30001;983;1858;-65
2021/09/24 02:32:44;;;;;;;;;;;;;;;12.47;74.58;97161.47;30001;983;1880;-67
2021/09/24 02:33:14;;;;;;;;;;;;;;;12.47;75.00;97161.47;30001;983;1880;-65
2021/09/24 02:33:45;;;;;;;;;;;;;;;12.48;74.40;97162.25;30001;983;1884;-66
2021/09/24 02:34:16;;;;;;;;;;;;;;;12.47;74.53;97157.94;30001;983;1880;-66
2021/09/24 02:34:47;;;;;;;;;;;;;;;12.47;74.41;97156.00;30001;983;1884;-66
2021/09/24 02:35:18;;;;;;;;;;;;;;;12.47;74.50;97155.22;30001;983;1880;-64
2021/09/24 02:35:49;;;;;;;;;;;;;;;12.47;74.43;97158.75;30001;982;1884;-66
2021/09/24 02:36:19;;;;;;;;;;;;;;;12.48;74.46;97163.03;30001;985;1880;-67
2021/09/24 02:36:50;;;;;;;;;;;;;;;12.48;74.51;97156.78;30001;982;1863;-66
2021/09/24 02:37:21;;;;;;;;;;;;;;;12.47;74.60;97157.94;30001;982;1876;-66
2021/09/24 02:37:53;;;;;;;;;;;;;;;12.46;74.73;97154.41;30001;982;1885;-66
2021/09/24 02:38:24;;;;;;;;;;;;;;;12.48;74.93;97157.59;30001;982;1747;-68
2021/09/24 02:38:55;;;;;;;;;;;;;;;12.47;74.61;97156.00;30001;983;1880;-65
2021/09/24 02:39:27;;;;;;;;;;;;;;;12.48;74.81;97157.59;30001;983;1880;-68
2021/09/24 02:39:58;;;;;;;;;;;;;;;12.48;74.63;97152.16;30001;983;1884;-67
2021/09/24 02:40:29;;;;;;;;;;;;;;;12.49;74.40;97156.50;30001;983;1880;-66
2021/09/24 02:41:00;;;;;;;;;;;;;;;12.49;74.59;97147.53;30001;983;1884;-67
2021/09/24 02:41:31;;;;;;;;;;;;;;;12.48;74.68;97146.72;30001;983;1880;-67
2021/09/24 02:42:02;;;;;;;;;;;;;;;12.49;74.59;97144.81;30001;983;1885;-66
2021/09/24 02:42:33;;;;;;;;;;;;;;;12.50;74.31;97147.22;30001;983;1881;-67
2021/09/24 02:43:04;;;;;;;;;;;;;;;12.51;74.30;97145.31;30001;982;1863;-70
2021/09/24 02:43:35;;;;;;;;;;;;;;;12.52;74.55;97147.72;30001;982;1876;-66
2021/09/24 02:44:06;;;;;;;;;;;;;;;12.51;74.45;97140.69;30001;982;1885;-66
2021/09/24 02:44:37;;;;;;;;;;;;;;;12.51;74.53;97139.88;30001;982;1880;-68
2021/09/24 02:45:09;;;;;;;;;;;;;;;12.49;74.55;97142.87;30001;982;1885;-66
2021/09/24 02:45:39;;;;;;;;;;;;;;;12.50;74.73;97147.22;30001;982;1881;-66
2021/09/24 02:46:10;;;;;;;;;;;;;;;12.49;74.47;97142.06;30001;982;1885;-66
2021/09/24 02:46:41;;;;;;;;;;;;;;;12.49;74.31;97144.81;30001;983;1858;-67